createdAt,value
2022-12-18T00:01:18.849Z,1.25
2022-12-18T00:03:47.124Z,1.02
2022-12-18T00:06:14.994Z,0.98
2022-12-18T00:08:46.365Z,0.82
2022-12-18T00:11:18.769Z,1.08
2022-12-18T00:13:46.914Z,0.90
2022-12-18T00:16:16.753Z,1.10
2022-12-18T00:18:46.457Z,1.08
2022-12-18T00:21:14.537Z,1.02
2022-12-18T00:23:44.076Z,1.13
2022-12-18T00:26:38.097Z,10.95
2022-12-18T00:29:08.622Z,21.85
2022-12-18T00:31:36.594Z,22.85
2022-12-18T00:34:04.555Z,70.35
2022-12-18T00:36:34.351Z,106.60
2022-12-18T00:39:02.856Z,110.60
2022-12-18T00:41:49.050Z,115.72
2022-12-18T00:44:17.953Z,107.82
2022-12-18T00:46:46.318Z,110.03
2022-12-18T00:49:21.063Z,134.48
2022-12-18T00:51:48.988Z,66.35
2022-12-18T00:54:16.815Z,109.53
2022-12-18T00:56:49.031Z,141.30
2022-12-18T00:59:17.916Z,150.05
2022-12-18T01:01:46.111Z,145.77
2022-12-18T01:04:14.133Z,154.23
2022-12-18T01:06:42.257Z,146.68
2022-12-18T01:09:10.024Z,177.50
2022-12-18T01:11:37.628Z,180.65
2022-12-18T01:14:05.394Z,195.63
2022-12-18T01:16:33.269Z,201.05
2022-12-18T01:19:01.690Z,232.45
2022-12-18T01:21:29.472Z,0.70
2022-12-18T01:23:57.798Z,0.80
2022-12-18T01:26:26.120Z,0.88
2022-12-18T01:28:54.386Z,156.70
2022-12-18T01:31:30.069Z,225.15
2022-12-18T01:33:57.946Z,236.52
2022-12-18T01:36:27.208Z,256.63
2022-12-18T01:38:55.270Z,0.82
2022-12-18T01:41:24.621Z,266.73
2022-12-18T01:43:54.275Z,1.08
2022-12-18T01:46:23.134Z,0.90
2022-12-18T01:48:52.765Z,0.82
2022-12-18T01:51:20.675Z,0.90
2022-12-18T01:53:49.084Z,0.82
2022-12-18T01:56:20.962Z,1.13
2022-12-18T01:58:52.769Z,225.52
2022-12-18T02:01:21.895Z,1.08
2022-12-18T02:03:49.829Z,237.55
2022-12-18T02:06:20.985Z,269.65
2022-12-18T02:09:05.224Z,1.05
2022-12-18T02:11:42.019Z,1.33
2022-12-18T02:14:17.748Z,0.55
2022-12-18T02:16:57.308Z,0.95
2022-12-18T02:19:48.790Z,28.83
2022-12-18T02:22:19.552Z,20.17
2022-12-18T02:24:59.478Z,46.90
2022-12-18T02:27:27.186Z,241.30
2022-12-18T02:29:58.736Z,281.35
2022-12-18T02:32:32.729Z,0.95
2022-12-18T02:35:01.443Z,1.00
2022-12-18T02:37:30.212Z,1.17
2022-12-18T02:39:59.204Z,269.77
2022-12-18T02:42:27.049Z,1.42
2022-12-18T02:44:54.866Z,0.80
2022-12-18T02:47:24.173Z,0.77
2022-12-18T02:50:10.574Z,1.00
2022-12-18T02:52:47.490Z,1.00
2022-12-18T02:55:18.264Z,0.80
2022-12-18T02:57:52.529Z,0.90
2022-12-18T03:00:41.815Z,0.82
2022-12-18T03:03:16.487Z,0.80
2022-12-18T03:06:01.099Z,0.90
2022-12-18T03:08:33.490Z,1.08
2022-12-18T03:11:04.356Z,1.75
2022-12-18T03:13:39.600Z,1.67
2022-12-18T03:16:10.206Z,147.98
2022-12-18T03:18:40.924Z,271.23
2022-12-18T03:21:10.087Z,0.90
2022-12-18T03:23:41.389Z,1.02
2022-12-18T03:26:11.562Z,1.20
2022-12-18T03:28:44.250Z,1.10
2022-12-18T03:31:13.853Z,0.85
2022-12-18T03:33:47.706Z,1.08
2022-12-18T03:36:15.746Z,0.77
2022-12-18T03:38:43.656Z,0.80
2022-12-18T03:41:14.268Z,1.23
2022-12-18T03:43:49.048Z,1.38
2022-12-18T03:46:30.976Z,1.48
2022-12-18T03:49:02.239Z,1.40
2022-12-18T03:51:29.764Z,196.93
2022-12-18T03:54:02.174Z,248.73
2022-12-18T03:56:32.045Z,287.15
2022-12-18T03:59:01.053Z,0.68
2022-12-18T04:01:32.778Z,359.55
2022-12-18T04:04:02.281Z,199.60
2022-12-18T04:06:31.071Z,262.63
2022-12-18T04:08:59.570Z,265.35
2022-12-18T04:11:27.410Z,266.05
2022-12-18T04:13:58.236Z,275.17
2022-12-18T04:16:26.614Z,245.45
2022-12-18T04:18:54.889Z,223.77
2022-12-18T04:21:22.606Z,238.85
2022-12-18T04:23:50.360Z,256.58
2022-12-18T04:26:18.143Z,0.73
2022-12-18T04:28:46.133Z,0.68
2022-12-18T04:31:14.086Z,0.85
2022-12-18T04:33:42.264Z,0.73
2022-12-18T04:36:10.321Z,0.80
2022-12-18T04:38:38.088Z,1.08
2022-12-18T04:41:05.836Z,0.80
2022-12-18T04:43:34.023Z,0.80
2022-12-18T04:46:05.815Z,1.58
2022-12-18T04:48:33.888Z,0.77
2022-12-18T04:51:01.514Z,1.00
2022-12-18T04:53:29.325Z,0.82
2022-12-18T04:56:06.962Z,11.40
2022-12-18T04:58:37.097Z,31.08
2022-12-18T05:01:04.998Z,0.68
2022-12-18T05:03:32.916Z,0.70
2022-12-18T05:06:00.822Z,0.68
2022-12-18T05:08:28.711Z,0.63
2022-12-18T05:11:07.536Z,0.75
2022-12-18T05:13:35.516Z,0.70
2022-12-18T05:16:03.879Z,0.90
2022-12-18T05:18:32.311Z,0.90
2022-12-18T05:21:00.104Z,1.00
2022-12-18T05:23:28.371Z,0.60
2022-12-18T05:25:57.120Z,0.73
2022-12-18T05:28:26.002Z,0.70
2022-12-18T05:30:54.490Z,0.77
2022-12-18T05:33:23.339Z,1.08
2022-12-18T05:35:55.305Z,0.70
2022-12-18T05:38:23.890Z,0.70
2022-12-18T05:40:52.149Z,0.93
2022-12-18T05:43:21.619Z,0.70
2022-12-18T05:45:49.731Z,1.20
2022-12-18T05:48:18.044Z,0.90
2022-12-18T05:50:49.378Z,0.95
2022-12-18T05:53:18.245Z,1.00
2022-12-18T05:55:46.093Z,1.00
2022-12-18T05:58:14.788Z,0.70
2022-12-18T06:00:43.606Z,0.90
2022-12-18T06:03:12.030Z,0.77
2022-12-18T06:05:40.723Z,1.05
2022-12-18T06:08:08.483Z,1.40
2022-12-18T06:10:36.111Z,0.80
2022-12-18T06:13:03.971Z,0.60
2022-12-18T06:15:31.776Z,0.52
2022-12-18T06:17:59.996Z,0.98
2022-12-18T06:20:33.225Z,0.85
2022-12-18T06:23:01.528Z,0.88
2022-12-18T06:25:29.400Z,0.95
2022-12-18T06:27:57.220Z,0.98
2022-12-18T06:30:25.238Z,0.70
2022-12-18T06:32:56.744Z,0.90
2022-12-18T06:35:25.189Z,1.02
2022-12-18T06:37:52.963Z,3.63
2022-12-18T06:40:20.880Z,0.80
2022-12-18T06:42:48.550Z,1.20
2022-12-18T06:45:17.835Z,35.10
2022-12-18T06:47:45.375Z,0.90
2022-12-18T06:50:13.259Z,0.75
2022-12-18T06:52:41.398Z,1.02
2022-12-18T06:55:09.406Z,29.13
2022-12-18T06:57:37.170Z,35.95
2022-12-18T07:00:06.338Z,0.90
2022-12-18T07:02:34.144Z,1.08
2022-12-18T07:05:06.185Z,15.80
2022-12-18T07:07:38.258Z,28.63
2022-12-18T07:10:06.223Z,0.90
2022-12-18T07:12:34.296Z,39.40
2022-12-18T07:15:02.162Z,0.95
2022-12-18T07:17:30.653Z,37.15
2022-12-18T07:19:59.635Z,42.03
2022-12-18T07:22:27.720Z,45.00
2022-12-18T07:24:56.385Z,47.45
2022-12-18T07:27:24.467Z,46.00
2022-12-18T07:29:52.383Z,1.30
2022-12-18T07:32:20.597Z,45.08
2022-12-18T07:34:48.429Z,42.05
2022-12-18T07:37:16.614Z,1.23
2022-12-18T07:39:44.444Z,38.15
2022-12-18T07:42:30.653Z,31.20
2022-12-18T07:44:58.391Z,0.90
2022-12-18T07:47:26.526Z,32.35
2022-12-18T07:49:55.048Z,33.63
2022-12-18T07:52:25.906Z,1.27
2022-12-18T07:54:54.098Z,33.55
2022-12-18T07:57:48.781Z,36.33
2022-12-18T08:00:10.039Z,37.40
2022-12-18T08:02:37.908Z,33.58
2022-12-18T08:05:05.991Z,34.10
2022-12-18T08:07:34.898Z,35.67
2022-12-18T08:10:02.611Z,35.47
2022-12-18T08:12:30.411Z,28.65
2022-12-18T08:14:58.151Z,37.25
2022-12-18T08:17:26.007Z,33.13
2022-12-18T08:19:54.276Z,36.95
2022-12-18T08:22:22.159Z,36.90
2022-12-18T08:24:51.183Z,2.90
2022-12-18T08:27:29.518Z,13.27
2022-12-18T08:29:58.571Z,32.22
2022-12-18T08:32:27.514Z,3.25
2022-12-18T08:34:55.415Z,28.02
2022-12-18T08:37:23.359Z,31.60
2022-12-18T08:39:51.134Z,16.27
2022-12-18T08:42:37.346Z,24.63
2022-12-18T08:45:05.723Z,23.58
2022-12-18T08:47:33.465Z,22.23
2022-12-18T08:50:01.239Z,17.40
2022-12-18T08:52:29.409Z,22.13
2022-12-18T08:54:57.164Z,21.35
2022-12-18T08:57:25.330Z,23.20
2022-12-18T08:59:53.016Z,13.23
2022-12-18T09:02:20.955Z,8.23
2022-12-18T09:04:55.436Z,10.57
2022-12-18T09:07:25.103Z,11.45
2022-12-18T09:09:52.917Z,16.95
2022-12-18T09:12:20.715Z,9.57
2022-12-18T09:14:48.807Z,12.00
2022-12-18T09:17:17.126Z,13.65
2022-12-18T09:19:45.293Z,19.75
2022-12-18T09:22:13.108Z,2.60
2022-12-18T09:24:43.403Z,2.35
2022-12-18T09:29:39.018Z,10.43
2022-12-18T09:32:06.974Z,9.07
2022-12-18T09:34:34.838Z,16.27
2022-12-18T09:37:02.438Z,17.05
2022-12-18T09:39:30.634Z,23.15
2022-12-18T09:41:59.455Z,18.05
2022-12-18T09:44:29.391Z,8.63
2022-12-18T09:47:02.074Z,29.17
2022-12-18T09:49:30.836Z,32.30
2022-12-18T09:52:11.393Z,40.67
2022-12-18T09:54:42.399Z,48.85
2022-12-18T09:57:15.175Z,41.75
2022-12-18T09:59:43.769Z,105.00
2022-12-18T10:02:19.376Z,114.85
2022-12-18T10:04:50.570Z,5.50
2022-12-18T10:07:24.929Z,7.18
2022-12-18T10:09:59.702Z,12.98
2022-12-18T10:12:31.614Z,2.95
2022-12-18T10:15:03.023Z,26.20
2022-12-18T10:17:50.391Z,123.03
2022-12-18T10:20:24.124Z,134.30
2022-12-18T10:23:04.241Z,134.18
2022-12-18T10:25:48.077Z,152.32
2022-12-18T10:28:16.615Z,150.48
2022-12-18T10:30:44.912Z,157.80
2022-12-18T10:33:14.116Z,146.77
2022-12-18T10:35:43.471Z,158.73
2022-12-18T10:38:14.111Z,151.77
2022-12-18T10:40:52.848Z,154.63
2022-12-18T10:43:26.592Z,157.45
2022-12-18T10:46:05.112Z,155.50
2022-12-18T10:48:33.174Z,153.15
2022-12-18T10:51:10.713Z,158.05
2022-12-18T10:53:41.741Z,162.00
2022-12-18T10:56:09.547Z,142.70
2022-12-18T10:58:38.144Z,150.30
2022-12-18T11:01:32.339Z,153.13
2022-12-18T11:04:02.378Z,129.93
2022-12-18T11:06:30.922Z,2.33
2022-12-18T11:09:20.189Z,2.30
2022-12-18T11:11:53.379Z,3.47
2022-12-18T11:14:29.501Z,5.38
2022-12-18T11:19:46.767Z,9.63
2022-12-18T11:22:23.904Z,8.48
2022-12-18T11:25:29.554Z,7.07
2022-12-18T11:27:49.537Z,8.00
2022-12-18T11:30:29.183Z,7.40
2022-12-18T11:33:13.679Z,6.20
2022-12-18T11:35:52.759Z,6.78
2022-12-18T11:38:32.206Z,6.22
2022-12-18T11:41:08.223Z,6.20
2022-12-18T11:43:39.101Z,6.07
2022-12-18T11:46:16.147Z,5.43
2022-12-18T11:48:53.166Z,5.30
2022-12-18T11:51:27.336Z,5.30
2022-12-18T11:53:55.282Z,5.88
2022-12-18T11:56:26.116Z,5.13
2022-12-18T11:59:16.704Z,5.22
2022-12-18T12:01:51.434Z,5.47
2022-12-18T12:04:32.591Z,5.35
2022-12-18T12:07:03.833Z,5.00
2022-12-18T12:09:37.403Z,4.90
2022-12-18T12:12:11.019Z,4.00
2022-12-18T12:14:53.416Z,4.57
2022-12-18T12:17:39.109Z,3.50
2022-12-18T12:20:07.298Z,3.53
2022-12-18T12:22:42.355Z,3.45
2022-12-18T12:25:33.878Z,3.40
2022-12-18T12:28:22.216Z,3.42
2022-12-18T12:30:49.844Z,3.00
2022-12-18T12:33:28.970Z,3.53
2022-12-18T12:35:56.748Z,2.95
2022-12-18T12:38:24.505Z,6.32
2022-12-18T12:41:02.204Z,3.25
2022-12-18T12:46:28.857Z,3.00
2022-12-18T12:49:10.784Z,2.92
2022-12-18T12:51:39.931Z,3.33
2022-12-18T12:54:13.733Z,3.40
2022-12-18T12:57:02.603Z,3.20
2022-12-18T12:59:39.719Z,2.60
2022-12-18T13:02:21.915Z,3.42
2022-12-18T13:05:16.620Z,3.13
2022-12-18T13:07:49.667Z,3.30
2022-12-18T13:10:26.979Z,3.80
2022-12-18T13:12:59.195Z,2.97
2022-12-18T13:15:41.026Z,3.13
2022-12-18T13:18:12.413Z,3.45
2022-12-18T13:20:53.176Z,3.33
2022-12-18T13:23:26.370Z,3.65
2022-12-18T13:25:54.958Z,2.80
2022-12-18T13:28:45.963Z,138.75
2022-12-18T13:31:14.762Z,2.70
2022-12-18T13:34:16.955Z,139.32
2022-12-18T13:36:36.151Z,140.07
2022-12-18T13:39:21.192Z,142.80
2022-12-18T13:42:35.669Z,146.45
2022-12-18T13:45:04.537Z,146.77
2022-12-18T13:47:36.634Z,153.23
2022-12-18T13:50:11.364Z,160.07
2022-12-18T13:52:41.479Z,163.77
2022-12-18T13:55:17.023Z,163.13
2022-12-18T13:57:44.847Z,161.95
2022-12-18T14:00:24.743Z,161.43
2022-12-18T14:02:53.099Z,161.90
2022-12-18T14:05:28.227Z,169.60
2022-12-18T14:07:56.793Z,168.63
2022-12-18T14:13:13.359Z,169.55
2022-12-18T14:15:43.368Z,170.65
2022-12-18T14:18:29.122Z,175.50
2022-12-18T14:20:57.775Z,169.35
2022-12-18T14:23:33.096Z,176.35
2022-12-18T14:26:05.743Z,185.95
2022-12-18T14:28:33.946Z,183.68
2022-12-18T14:31:01.877Z,182.48
2022-12-18T14:33:29.828Z,174.45
2022-12-18T14:35:57.491Z,178.65
2022-12-18T14:38:29.610Z,185.95
2022-12-18T14:40:58.662Z,194.73
2022-12-18T14:43:26.553Z,185.70
2022-12-18T14:45:54.304Z,170.63
2022-12-18T14:48:37.408Z,174.07
2022-12-18T14:51:19.388Z,174.23
2022-12-18T14:53:54.848Z,173.23
2022-12-18T14:56:24.459Z,180.18
2022-12-18T14:59:02.903Z,178.30
2022-12-18T15:01:43.620Z,177.98
2022-12-18T15:04:30.668Z,177.23
2022-12-18T15:07:06.351Z,181.57
2022-12-18T15:09:34.079Z,179.18
2022-12-18T15:12:02.674Z,191.15
2022-12-18T15:14:40.646Z,189.32
2022-12-18T15:17:17.506Z,191.00
2022-12-18T15:19:45.915Z,184.75
2022-12-18T15:22:25.276Z,187.23
2022-12-18T15:24:53.097Z,196.75
2022-12-18T15:27:41.294Z,187.05
2022-12-18T15:30:12.126Z,181.93
2022-12-18T15:32:40.104Z,181.23
2022-12-18T15:35:10.872Z,183.32
2022-12-18T15:37:39.097Z,187.52
2022-12-18T15:40:08.343Z,188.68
2022-12-18T15:42:54.648Z,183.32
2022-12-18T15:45:22.462Z,184.95
2022-12-18T15:47:51.765Z,184.65
2022-12-18T15:50:19.564Z,188.43
2022-12-18T15:52:48.416Z,180.73
2022-12-18T15:55:36.301Z,181.05
2022-12-18T15:58:05.244Z,182.02
2022-12-18T16:00:33.975Z,186.23
2022-12-18T16:03:01.933Z,182.02
2022-12-18T16:05:29.744Z,189.65
2022-12-18T16:07:57.558Z,179.15
2022-12-18T16:10:26.201Z,174.10
2022-12-18T16:12:53.909Z,180.20
2022-12-18T16:15:24.819Z,174.85
2022-12-18T16:17:53.025Z,175.93
2022-12-18T16:20:22.641Z,179.52
2022-12-18T16:22:50.553Z,186.52
2022-12-18T16:25:28.821Z,191.10
2022-12-18T16:27:57.140Z,167.93
2022-12-18T16:30:34.868Z,183.13
2022-12-18T16:33:07.519Z,184.73
2022-12-18T16:35:38.136Z,188.18
2022-12-18T16:38:08.329Z,179.65
2022-12-18T16:40:55.950Z,185.15
2022-12-18T16:43:23.687Z,184.50
2022-12-18T16:45:51.353Z,186.13
2022-12-18T16:48:19.769Z,185.10
2022-12-18T16:50:47.538Z,185.18
2022-12-18T16:53:15.259Z,185.48
2022-12-18T16:55:43.137Z,184.15
2022-12-18T16:58:10.812Z,181.15
2022-12-18T17:00:41.711Z,190.13
2022-12-18T17:03:09.649Z,185.10
2022-12-18T17:05:37.325Z,179.40
2022-12-18T17:08:05.264Z,193.57
2022-12-18T17:10:33.226Z,180.07
2022-12-18T17:13:01.199Z,179.18
2022-12-18T17:15:28.854Z,186.00
2022-12-18T17:17:56.692Z,193.52
2022-12-18T17:20:24.941Z,174.35
2022-12-18T17:22:53.036Z,190.77
2022-12-18T17:25:20.783Z,185.82
2022-12-18T17:27:51.478Z,183.50
2022-12-18T17:30:19.369Z,188.23
2022-12-18T17:32:47.289Z,188.80
2022-12-18T17:35:15.021Z,183.95
2022-12-18T17:37:42.890Z,191.45
2022-12-18T17:40:11.011Z,189.88
2022-12-18T17:42:38.822Z,193.52
2022-12-18T17:45:07.600Z,191.63
2022-12-18T17:47:38.436Z,195.93
2022-12-18T17:50:06.365Z,188.30
2022-12-18T17:52:37.479Z,201.13
2022-12-18T17:55:05.421Z,200.40
2022-12-18T17:57:33.218Z,199.60
2022-12-18T18:00:01.590Z,202.32
2022-12-18T18:02:29.692Z,208.07
2022-12-18T18:05:00.615Z,213.70
2022-12-18T18:07:28.377Z,204.63
2022-12-18T18:09:56.858Z,207.80
2022-12-18T18:12:43.193Z,207.75
2022-12-18T18:15:11.335Z,221.82
2022-12-18T18:17:40.469Z,210.27
2022-12-18T18:20:08.483Z,213.80
2022-12-18T18:22:36.270Z,209.82
2022-12-18T18:25:04.120Z,206.73
2022-12-18T18:27:38.429Z,202.90
2022-12-18T18:30:06.913Z,206.77
2022-12-18T18:32:38.010Z,206.38
2022-12-18T18:35:06.711Z,207.32
2022-12-18T18:37:37.617Z,209.35
2022-12-18T18:40:06.570Z,211.82
2022-12-18T18:42:34.311Z,206.82
2022-12-18T18:45:02.114Z,198.70
2022-12-18T18:47:30.882Z,207.55
2022-12-18T18:49:58.587Z,207.95
2022-12-18T18:52:26.309Z,209.57
2022-12-18T18:55:12.433Z,218.25
2022-12-18T18:57:42.620Z,206.40
2022-12-18T19:00:10.577Z,207.80
2022-12-18T19:02:38.535Z,196.82
2022-12-18T19:05:06.643Z,199.20
2022-12-18T19:07:34.331Z,202.60
2022-12-18T19:10:05.252Z,198.10
2022-12-18T19:12:51.901Z,189.27
2022-12-18T19:15:19.635Z,204.00
2022-12-18T19:17:48.549Z,205.73
2022-12-18T19:20:16.707Z,212.23
2022-12-18T19:22:49.026Z,203.75
2022-12-18T19:25:30.674Z,199.63
2022-12-18T19:28:15.840Z,202.88
2022-12-18T19:30:50.440Z,206.07
2022-12-18T19:36:12.540Z,205.60
2022-12-18T19:38:41.020Z,206.82
2022-12-18T19:41:12.678Z,176.32
2022-12-18T19:43:41.704Z,149.98
2022-12-18T19:46:09.671Z,162.10
2022-12-18T19:48:37.456Z,178.57
2022-12-18T19:51:06.297Z,175.82
2022-12-18T19:53:34.107Z,176.32
2022-12-18T19:56:06.324Z,170.93
2022-12-18T19:58:34.094Z,189.10
2022-12-18T20:01:02.062Z,184.57
2022-12-18T20:03:32.782Z,191.20
2022-12-18T20:06:11.297Z,190.00
2022-12-18T20:08:39.232Z,188.57
2022-12-18T20:11:07.353Z,194.70
2022-12-18T20:13:35.589Z,194.55
2022-12-18T20:16:05.943Z,200.98
2022-12-18T20:18:33.717Z,196.63
2022-12-18T20:21:02.172Z,194.63
2022-12-18T20:23:32.806Z,195.80
2022-12-18T20:26:02.065Z,191.60
2022-12-18T20:28:29.938Z,181.32
2022-12-18T20:31:02.062Z,195.63
2022-12-18T20:33:30.493Z,195.70
2022-12-18T20:36:02.595Z,199.93
2022-12-18T20:38:31.199Z,201.98
2022-12-18T20:41:02.588Z,196.73
2022-12-18T20:43:30.707Z,165.13
2022-12-18T20:46:02.542Z,160.50
2022-12-18T20:48:30.334Z,189.93
2022-12-18T20:50:59.016Z,195.10
2022-12-18T20:53:30.271Z,193.27
2022-12-18T20:55:58.169Z,193.10
2022-12-18T20:58:26.293Z,196.90
2022-12-18T21:01:05.672Z,183.50
2022-12-18T21:03:33.558Z,167.25
2022-12-18T21:06:01.507Z,162.98
2022-12-18T21:08:29.619Z,188.98
2022-12-18T21:10:57.461Z,179.98
2022-12-18T21:13:25.293Z,142.02
2022-12-18T21:15:55.190Z,185.10
2022-12-18T21:18:23.605Z,177.00
2022-12-18T21:20:51.411Z,179.80
2022-12-18T21:23:19.332Z,190.93
2022-12-18T21:25:48.366Z,183.27
2022-12-18T21:28:20.039Z,181.35
2022-12-18T21:30:48.064Z,184.30
2022-12-18T21:33:16.078Z,183.73
2022-12-18T21:35:43.825Z,183.80
2022-12-18T21:38:11.706Z,189.93
2022-12-18T21:40:40.172Z,181.82
2022-12-18T21:43:26.119Z,194.10
2022-12-18T21:45:53.932Z,191.98
2022-12-18T21:48:21.751Z,193.93
2022-12-18T21:50:49.600Z,183.38
2022-12-18T21:53:17.374Z,189.27
2022-12-18T21:55:45.738Z,184.40
2022-12-18T21:58:13.520Z,185.23
2022-12-18T22:00:45.657Z,171.88
2022-12-18T22:03:18.882Z,184.60
2022-12-18T22:05:47.242Z,175.02
2022-12-18T22:08:19.203Z,183.85
2022-12-18T22:10:47.370Z,180.85
2022-12-18T22:13:15.381Z,181.27
2022-12-18T22:15:43.363Z,187.63
2022-12-18T22:18:15.404Z,189.40
2022-12-18T22:20:43.853Z,197.95
2022-12-18T22:23:13.971Z,202.25
2022-12-18T22:25:41.933Z,183.85
2022-12-18T22:28:28.194Z,194.05
2022-12-18T22:30:59.693Z,195.70
2022-12-18T22:33:28.190Z,193.60
2022-12-18T22:35:55.941Z,190.60
2022-12-18T22:38:23.767Z,197.57
2022-12-18T22:40:51.657Z,206.68
2022-12-18T22:43:19.529Z,191.05
2022-12-18T22:45:49.074Z,189.43
2022-12-18T22:48:17.068Z,202.05
2022-12-18T22:50:44.969Z,201.07
2022-12-18T22:53:12.651Z,198.35
2022-12-18T22:55:40.387Z,185.25
2022-12-18T22:58:08.158Z,187.75
2022-12-18T23:00:35.928Z,187.30
2022-12-18T23:03:03.754Z,190.52
2022-12-18T23:05:34.213Z,199.80
2022-12-18T23:08:02.134Z,198.60
2022-12-18T23:10:30.000Z,196.23
2022-12-18T23:12:57.734Z,203.90
2022-12-18T23:15:27.604Z,195.27
2022-12-18T23:17:56.966Z,202.32
2022-12-18T23:20:25.608Z,197.07
2022-12-18T23:22:53.497Z,198.20
2022-12-18T23:25:23.600Z,201.25
2022-12-18T23:27:51.777Z,202.77
2022-12-18T23:30:19.583Z,207.88
2022-12-18T23:32:47.287Z,212.30
2022-12-18T23:35:15.759Z,211.55
2022-12-18T23:38:00.122Z,206.40
2022-12-18T23:40:29.036Z,215.40
2022-12-18T23:42:56.664Z,209.75
2022-12-18T23:45:24.734Z,215.55
2022-12-18T23:47:52.605Z,214.85
2022-12-18T23:50:24.539Z,216.20
2022-12-18T23:53:05.514Z,215.00
2022-12-18T23:55:33.705Z,225.05
2022-12-18T23:58:01.434Z,210.50
